createdAt,value
2023-02-09T00:01:05.462Z,15.80
2023-02-09T00:04:06.896Z,17.83
2023-02-09T00:07:08.342Z,15.93
2023-02-09T00:10:10.022Z,18.37
2023-02-09T00:13:23.577Z,15.27
2023-02-09T00:16:26.005Z,15.23
2023-02-09T00:19:27.907Z,17.27
2023-02-09T00:22:29.309Z,13.87
2023-02-09T00:25:30.722Z,15.17
2023-02-09T00:28:32.403Z,14.80
2023-02-09T00:31:34.691Z,14.37
2023-02-09T00:34:37.248Z,15.53
2023-02-09T00:37:38.622Z,14.47
2023-02-09T00:40:41.719Z,14.20
2023-02-09T00:48:30.431Z,15.73
2023-02-09T00:51:31.820Z,16.40
2023-02-09T00:54:33.371Z,15.57
2023-02-09T00:57:35.968Z,15.27
2023-02-09T01:00:37.691Z,15.07
2023-02-09T01:03:42.938Z,13.87
2023-02-09T01:06:44.328Z,13.93
2023-02-09T01:09:45.792Z,14.97
2023-02-09T01:12:47.830Z,12.90
2023-02-09T01:15:49.211Z,14.40
2023-02-09T01:18:50.911Z,15.20
2023-02-09T01:21:52.311Z,14.57
2023-02-09T01:24:53.758Z,14.87
2023-02-09T01:27:55.239Z,12.83
2023-02-09T01:30:57.097Z,14.83
2023-02-09T01:34:00.792Z,17.83
2023-02-09T01:37:02.364Z,16.03
2023-02-09T01:40:05.368Z,13.60
2023-02-09T01:43:06.821Z,17.87
2023-02-09T01:46:08.243Z,16.27
2023-02-09T01:49:15.594Z,16.03
2023-02-09T01:52:21.053Z,15.53
2023-02-09T01:55:27.151Z,16.50
2023-02-09T01:58:28.832Z,13.90
2023-02-09T02:01:30.290Z,13.80
2023-02-09T02:04:33.539Z,14.57
2023-02-09T02:07:46.764Z,16.70
2023-02-09T02:10:48.428Z,14.17
2023-02-09T02:13:49.983Z,17.63
2023-02-09T02:17:41.073Z,17.30
2023-02-09T02:21:21.219Z,19.50
2023-02-09T02:24:35.603Z,15.70
2023-02-09T02:27:53.888Z,15.93
2023-02-09T02:31:39.946Z,15.77
2023-02-09T02:34:52.134Z,14.77
2023-02-09T02:38:02.904Z,14.90
2023-02-09T02:41:16.872Z,14.93
2023-02-09T02:44:19.452Z,17.37
2023-02-09T02:47:23.670Z,16.40
2023-02-09T02:50:31.321Z,15.17
2023-02-09T02:53:35.723Z,15.77
2023-02-09T02:56:41.588Z,16.77
2023-02-09T02:59:57.175Z,14.90
2023-02-09T03:03:03.856Z,17.40
2023-02-09T03:06:06.421Z,16.80
2023-02-09T03:09:08.699Z,16.73
2023-02-09T03:12:24.553Z,16.77
2023-02-09T03:15:41.071Z,19.00
2023-02-09T03:19:01.631Z,17.30
2023-02-09T03:22:11.778Z,20.80
2023-02-09T03:25:43.674Z,15.60
2023-02-09T03:28:46.380Z,16.80
2023-02-09T03:31:49.017Z,18.73
2023-02-09T03:34:52.566Z,19.37
2023-02-09T03:37:53.955Z,18.57
2023-02-09T03:40:55.384Z,18.27
2023-02-09T03:44:15.616Z,16.43
2023-02-09T03:47:17.012Z,18.80
2023-02-09T03:50:18.436Z,17.70
2023-02-09T03:53:19.958Z,18.27
2023-02-09T03:56:24.742Z,17.47
2023-02-09T03:59:27.043Z,19.77
2023-02-09T04:02:29.942Z,19.60
2023-02-09T04:05:31.349Z,19.43
2023-02-09T04:08:33.163Z,20.90
2023-02-09T04:11:34.945Z,20.40
2023-02-09T04:14:36.533Z,26.23
2023-02-09T04:17:37.934Z,24.63
2023-02-09T04:20:39.356Z,19.80
2023-02-09T04:23:40.824Z,19.70
2023-02-09T04:26:42.241Z,19.17
2023-02-09T04:29:43.652Z,20.47
2023-02-09T04:32:45.149Z,20.33
2023-02-09T04:35:48.723Z,16.70
2023-02-09T04:38:50.679Z,19.17
2023-02-09T04:41:52.076Z,20.30
2023-02-09T04:44:53.500Z,19.93
2023-02-09T04:47:54.861Z,17.77
2023-02-09T04:50:56.865Z,19.70
2023-02-09T04:53:58.259Z,19.90
2023-02-09T04:57:18.288Z,18.93
2023-02-09T05:00:19.880Z,18.67
2023-02-09T05:03:23.046Z,20.87
2023-02-09T05:06:25.968Z,18.80
2023-02-09T05:09:27.398Z,22.23
2023-02-09T05:12:28.836Z,17.87
2023-02-09T05:15:30.217Z,19.10
2023-02-09T05:18:31.587Z,21.77
2023-02-09T05:21:33.041Z,18.93
2023-02-09T05:24:34.435Z,19.23
2023-02-09T05:27:35.870Z,18.67
2023-02-09T05:30:37.571Z,20.97
2023-02-09T05:33:38.998Z,20.43
2023-02-09T05:36:40.397Z,18.77
2023-02-09T05:39:41.776Z,20.57
2023-02-09T05:42:43.339Z,22.90
2023-02-09T05:45:45.548Z,21.43
2023-02-09T05:48:46.963Z,19.40
2023-02-09T05:51:48.383Z,20.10
2023-02-09T05:54:50.047Z,18.73
2023-02-09T05:57:51.422Z,18.90
2023-02-09T06:00:52.796Z,16.30
2023-02-09T06:03:54.334Z,17.67
2023-02-09T06:06:56.262Z,17.80
2023-02-09T06:09:57.663Z,17.60
2023-02-09T06:12:59.090Z,17.40
2023-02-09T06:16:00.587Z,16.37
2023-02-09T06:19:02.165Z,18.10
2023-02-09T06:22:03.618Z,19.20
2023-02-09T06:25:05.393Z,18.07
2023-02-09T06:28:06.845Z,19.30
2023-02-09T06:31:09.150Z,20.20
2023-02-09T06:34:10.586Z,18.77
2023-02-09T06:37:11.993Z,23.67
2023-02-09T06:40:13.543Z,18.67
2023-02-09T06:43:15.590Z,26.10
2023-02-09T06:46:17.052Z,27.43
2023-02-09T06:49:18.865Z,37.13
2023-02-09T06:52:20.533Z,44.77
2023-02-09T06:55:21.947Z,24.07
2023-02-09T06:58:23.328Z,24.97
2023-02-09T07:01:24.760Z,21.73
2023-02-09T07:04:26.213Z,30.77
2023-02-09T07:07:27.653Z,23.70
2023-02-09T07:10:29.091Z,22.97
2023-02-09T07:13:31.908Z,24.67
2023-02-09T07:16:33.379Z,19.47
2023-02-09T07:19:34.934Z,19.53
2023-02-09T07:22:36.589Z,21.60
2023-02-09T07:25:38.007Z,19.97
2023-02-09T07:28:39.409Z,20.30
2023-02-09T07:31:40.985Z,22.33
2023-02-09T07:34:42.467Z,20.63
2023-02-09T07:37:43.853Z,21.37
2023-02-09T07:40:46.555Z,24.57
2023-02-09T07:43:48.314Z,18.70
2023-02-09T07:46:49.774Z,19.17
2023-02-09T07:49:51.280Z,19.17
2023-02-09T07:52:54.286Z,19.47
2023-02-09T07:55:55.974Z,21.73
2023-02-09T07:58:57.499Z,20.00
2023-02-09T08:01:59.031Z,20.70
2023-02-09T08:05:01.472Z,21.37
2023-02-09T08:08:02.922Z,19.23
2023-02-09T08:11:05.380Z,18.93
2023-02-09T08:14:16.610Z,16.57
2023-02-09T08:17:20.394Z,21.00
2023-02-09T08:20:25.464Z,20.60
2023-02-09T08:23:30.790Z,17.50
2023-02-09T08:26:32.690Z,20.10
2023-02-09T08:29:34.186Z,19.50
2023-02-09T08:32:35.719Z,23.40
2023-02-09T08:35:37.115Z,20.37
2023-02-09T08:38:38.909Z,21.57
2023-02-09T08:41:40.318Z,19.00
2023-02-09T08:44:41.738Z,20.90
2023-02-09T08:47:43.222Z,19.70
2023-02-09T08:50:44.602Z,19.03
2023-02-09T08:53:52.181Z,21.93
2023-02-09T08:56:54.084Z,22.63
2023-02-09T08:59:55.548Z,17.33
2023-02-09T09:02:56.984Z,20.60
2023-02-09T09:06:02.520Z,23.43
2023-02-09T09:09:04.160Z,23.47
2023-02-09T09:12:05.749Z,23.50
2023-02-09T09:15:07.520Z,22.03
2023-02-09T09:18:09.650Z,22.10
2023-02-09T09:21:13.035Z,19.50
2023-02-09T09:24:14.478Z,21.63
2023-02-09T09:27:16.150Z,23.43
2023-02-09T09:30:17.535Z,24.27
2023-02-09T09:33:18.999Z,23.60
2023-02-09T09:36:20.634Z,22.40
2023-02-09T09:39:22.086Z,22.43
2023-02-09T09:42:34.512Z,22.27
2023-02-09T09:45:38.590Z,22.97
2023-02-09T09:48:50.703Z,23.13
2023-02-09T09:52:00.218Z,22.30
2023-02-09T09:55:06.645Z,25.00
2023-02-09T09:58:12.557Z,24.73
2023-02-09T10:01:15.971Z,24.07
2023-02-09T10:04:17.645Z,21.87
2023-02-09T10:07:23.603Z,24.07
2023-02-09T10:10:56.473Z,23.63
2023-02-09T10:13:58.009Z,21.93
2023-02-09T10:16:59.416Z,22.80
2023-02-09T10:20:04.572Z,25.43
2023-02-09T10:23:06.000Z,23.03
2023-02-09T10:26:07.312Z,25.07
2023-02-09T10:29:23.836Z,23.13
2023-02-09T10:32:39.820Z,26.47
2023-02-09T10:35:49.131Z,27.20
2023-02-09T10:38:51.811Z,22.43
2023-02-09T10:41:55.471Z,24.70
2023-02-09T10:45:03.465Z,22.70
2023-02-09T10:48:10.932Z,23.77
2023-02-09T10:51:33.597Z,22.87
2023-02-09T10:54:35.327Z,28.37
2023-02-09T10:57:38.435Z,23.73
2023-02-09T11:00:57.691Z,22.80
2023-02-09T11:04:21.067Z,32.20
2023-02-09T11:07:27.985Z,23.10
2023-02-09T11:10:32.096Z,26.40
2023-02-09T11:13:34.964Z,26.73
2023-02-09T11:16:47.258Z,23.20
2023-02-09T11:20:39.928Z,24.30
2023-02-09T11:24:06.807Z,26.60
2023-02-09T11:27:43.413Z,25.87
2023-02-09T11:31:06.414Z,24.47
2023-02-09T11:34:34.667Z,24.87
2023-02-09T11:37:46.739Z,26.60
2023-02-09T11:40:52.875Z,26.73
2023-02-09T11:43:57.493Z,29.63
2023-02-09T11:47:05.353Z,27.27
2023-02-09T11:50:15.071Z,28.70
2023-02-09T11:53:38.798Z,29.37
2023-02-09T11:56:44.698Z,26.17
2023-02-09T11:59:56.347Z,31.07
2023-02-09T12:03:15.982Z,30.00
2023-02-09T12:06:22.802Z,27.40
2023-02-09T12:09:48.697Z,31.73
2023-02-09T12:13:01.205Z,30.70
2023-02-09T12:16:11.716Z,27.93
2023-02-09T12:19:26.322Z,29.30
2023-02-09T12:22:52.266Z,30.57
2023-02-09T12:26:01.069Z,31.83
2023-02-09T12:29:24.042Z,27.70
2023-02-09T12:32:42.303Z,28.67
2023-02-09T12:35:57.851Z,31.17
2023-02-09T12:39:23.867Z,31.23
2023-02-09T12:42:27.953Z,30.27
2023-02-09T12:45:37.268Z,29.63
2023-02-09T12:48:50.592Z,32.97
2023-02-09T12:51:54.881Z,28.73
2023-02-09T12:54:56.701Z,28.93
2023-02-09T12:57:58.347Z,31.20
2023-02-09T13:00:59.803Z,30.47
2023-02-09T13:04:05.682Z,27.53
2023-02-09T13:07:23.001Z,30.80
2023-02-09T13:10:54.297Z,30.53
2023-02-09T13:14:04.021Z,32.97
2023-02-09T13:17:17.503Z,26.90
2023-02-09T13:20:33.945Z,28.17
2023-02-09T13:23:59.375Z,28.67
2023-02-09T13:27:01.378Z,32.67
2023-02-09T13:30:02.783Z,30.93
2023-02-09T13:33:21.795Z,31.10
2023-02-09T13:36:38.562Z,28.97
2023-02-09T13:39:41.904Z,30.37
2023-02-09T13:42:57.869Z,29.80
2023-02-09T13:46:01.409Z,32.13
2023-02-09T13:49:10.783Z,34.77
2023-02-09T13:52:15.140Z,29.93
2023-02-09T13:55:20.854Z,30.03
2023-02-09T13:58:27.134Z,31.70
2023-02-09T14:01:32.600Z,28.87
2023-02-09T14:04:34.813Z,32.67
2023-02-09T14:07:37.643Z,47.13
2023-02-09T14:10:42.888Z,31.17
2023-02-09T14:13:50.053Z,31.90
2023-02-09T14:17:25.532Z,28.13
2023-02-09T14:20:27.246Z,29.77
2023-02-09T14:23:32.782Z,28.27
2023-02-09T14:26:42.831Z,28.80
2023-02-09T14:29:48.741Z,28.87
2023-02-09T14:32:54.720Z,29.13
2023-02-09T14:35:59.141Z,31.13
2023-02-09T14:39:20.897Z,30.60
2023-02-09T14:42:23.268Z,28.93
2023-02-09T14:45:24.682Z,29.00
2023-02-09T14:48:28.253Z,32.23
2023-02-09T14:51:29.647Z,28.07
2023-02-09T14:54:34.489Z,29.47
2023-02-09T14:57:38.424Z,27.57
2023-02-09T15:00:39.854Z,30.60
2023-02-09T15:03:41.222Z,30.37
2023-02-09T15:06:45.397Z,32.80
2023-02-09T15:09:47.080Z,30.57
2023-02-09T15:12:48.817Z,30.07
2023-02-09T15:15:50.324Z,32.10
2023-02-09T15:18:51.765Z,29.63
2023-02-09T15:22:06.534Z,28.90
2023-02-09T15:25:12.428Z,32.50
2023-02-09T15:28:28.134Z,31.63
2023-02-09T15:31:29.954Z,27.90
2023-02-09T15:34:31.347Z,26.73
2023-02-09T15:37:38.281Z,30.97
2023-02-09T15:41:01.341Z,28.17
2023-02-09T15:44:38.458Z,30.60
2023-02-09T15:47:48.632Z,29.97
2023-02-09T15:50:50.681Z,32.80
2023-02-09T15:53:57.369Z,30.30
2023-02-09T15:57:00.919Z,37.40
2023-02-09T16:00:02.464Z,33.10
2023-02-09T16:03:14.650Z,34.83
2023-02-09T16:06:20.320Z,33.27
2023-02-09T16:09:26.518Z,32.87
2023-02-09T16:12:27.988Z,30.83
2023-02-09T16:15:29.358Z,33.57
2023-02-09T16:18:30.772Z,30.93
2023-02-09T16:21:33.524Z,29.80
2023-02-09T16:24:46.252Z,30.07
2023-02-09T16:27:48.296Z,30.10
2023-02-09T16:30:57.966Z,27.23
2023-02-09T16:33:59.473Z,40.83
2023-02-09T16:37:00.912Z,29.97
2023-02-09T16:40:02.546Z,33.33
2023-02-09T16:43:05.627Z,35.57
2023-02-09T16:46:07.484Z,31.27
2023-02-09T16:49:25.648Z,34.17
2023-02-09T16:52:27.692Z,32.73
2023-02-09T16:55:34.149Z,30.63
2023-02-09T16:58:36.765Z,31.23
2023-02-09T17:01:38.392Z,34.13
2023-02-09T17:04:40.182Z,34.43
2023-02-09T17:07:53.519Z,32.87
2023-02-09T17:10:58.346Z,32.60
2023-02-09T17:13:59.767Z,36.67
2023-02-09T17:17:04.254Z,35.87
2023-02-09T17:20:06.121Z,35.13
2023-02-09T17:23:10.005Z,42.93
2023-02-09T17:26:13.082Z,42.03
2023-02-09T17:29:14.486Z,37.57
2023-02-09T17:32:16.030Z,42.97
2023-02-09T17:35:33.171Z,35.43
2023-02-09T17:38:41.985Z,40.33
2023-02-09T17:41:45.215Z,55.10
2023-02-09T17:44:46.974Z,43.97
2023-02-09T17:47:53.365Z,40.37
2023-02-09T17:50:58.100Z,37.83
2023-02-09T17:54:00.280Z,37.00
2023-02-09T17:57:01.657Z,38.13
2023-02-09T18:00:03.659Z,36.43
2023-02-09T18:03:06.040Z,40.17
2023-02-09T18:06:07.530Z,39.17
2023-02-09T18:09:12.120Z,44.67
2023-02-09T18:12:21.889Z,40.77
2023-02-09T18:15:26.932Z,42.67
2023-02-09T18:18:28.303Z,43.50
2023-02-09T18:21:30.388Z,41.00
2023-02-09T18:24:34.303Z,46.67
2023-02-09T18:27:35.690Z,43.57
2023-02-09T18:30:39.214Z,44.20
2023-02-09T18:33:40.821Z,46.23
2023-02-09T18:36:42.409Z,46.30
2023-02-09T18:39:46.250Z,45.73
2023-02-09T18:42:48.008Z,49.53
2023-02-09T18:45:49.568Z,42.80
2023-02-09T18:48:51.663Z,48.83
2023-02-09T18:51:53.131Z,50.13
2023-02-09T18:54:54.585Z,46.43
2023-02-09T18:57:58.321Z,45.73
2023-02-09T19:01:00.009Z,43.57
2023-02-09T19:04:01.396Z,42.40
2023-02-09T19:07:03.434Z,42.20
2023-02-09T19:10:08.185Z,41.47
2023-02-09T19:13:09.900Z,39.60
2023-02-09T19:16:12.681Z,48.77
2023-02-09T19:19:16.018Z,54.03
2023-02-09T19:22:20.200Z,51.63
2023-02-09T19:25:23.496Z,53.73
2023-02-09T19:28:25.026Z,54.37
2023-02-09T19:31:26.538Z,55.07
2023-02-09T19:34:31.229Z,60.73
2023-02-09T19:37:32.731Z,64.90
2023-02-09T19:40:40.738Z,83.33
2023-02-09T19:43:42.129Z,70.60
2023-02-09T19:46:43.979Z,73.60
2023-02-09T19:49:46.338Z,70.03
2023-02-09T19:52:49.004Z,74.53
2023-02-09T19:55:51.905Z,66.30
2023-02-09T19:58:53.415Z,60.53
2023-02-09T20:01:54.866Z,50.73
2023-02-09T20:04:56.390Z,54.50
2023-02-09T20:07:58.019Z,52.83
2023-02-09T20:10:59.410Z,53.20
2023-02-09T20:17:07.131Z,50.97
2023-02-09T20:20:08.887Z,45.13
2023-02-09T20:23:10.573Z,51.17
2023-02-09T20:26:26.701Z,45.20
2023-02-09T20:29:28.119Z,47.07
2023-02-09T20:32:30.008Z,41.87
2023-02-09T20:35:31.390Z,42.57
2023-02-09T20:38:33.480Z,47.47
2023-02-09T20:41:34.872Z,41.57
2023-02-09T20:44:55.490Z,46.47
2023-02-09T20:47:56.907Z,46.73
2023-02-09T20:50:58.386Z,44.93
2023-02-09T20:53:59.799Z,41.07
2023-02-09T20:57:01.242Z,41.83
2023-02-09T21:00:08.981Z,39.37
2023-02-09T21:03:11.419Z,38.47
2023-02-09T21:06:13.191Z,41.83
2023-02-09T21:09:15.331Z,36.87
2023-02-09T21:12:16.735Z,39.37
2023-02-09T21:15:18.152Z,38.63
2023-02-09T21:18:21.358Z,35.37
2023-02-09T21:21:23.137Z,36.17
2023-02-09T21:24:24.553Z,36.43
2023-02-09T21:27:26.181Z,34.37
2023-02-09T21:30:28.201Z,32.43
2023-02-09T21:33:29.582Z,34.63
2023-02-09T21:36:30.973Z,34.87
2023-02-09T21:39:32.379Z,36.13
2023-02-09T21:42:35.501Z,36.33
2023-02-09T21:45:39.261Z,38.63
2023-02-09T21:48:40.776Z,35.07
2023-02-09T21:51:42.549Z,42.17
2023-02-09T21:54:43.934Z,35.77
2023-02-09T21:57:45.404Z,37.57
2023-02-09T22:00:47.086Z,40.30
2023-02-09T22:03:49.969Z,35.53
2023-02-09T22:06:51.554Z,35.50
2023-02-09T22:09:52.961Z,36.23
2023-02-09T22:12:54.377Z,35.20
2023-02-09T22:15:56.336Z,38.03
2023-02-09T22:18:59.341Z,36.13
2023-02-09T22:22:01.516Z,35.03
2023-02-09T22:25:03.044Z,36.20
2023-02-09T22:28:05.481Z,35.23
2023-02-09T22:31:12.730Z,34.40
2023-02-09T22:34:14.229Z,38.00
2023-02-09T22:37:15.609Z,36.10
2023-02-09T22:40:17.074Z,37.30
2023-02-09T22:43:18.453Z,38.10
2023-02-09T22:46:21.782Z,41.87
2023-02-09T22:49:23.290Z,40.30
2023-02-09T22:52:24.730Z,37.10
2023-02-09T22:55:26.172Z,40.93
2023-02-09T22:58:27.621Z,38.00
2023-02-09T23:01:29.592Z,38.80
2023-02-09T23:04:32.745Z,40.40
2023-02-09T23:07:34.117Z,44.67
2023-02-09T23:10:35.637Z,47.93
2023-02-09T23:13:37.500Z,47.93
2023-02-09T23:16:41.030Z,40.27
2023-02-09T23:19:42.410Z,40.57
2023-02-09T23:22:43.785Z,41.73
2023-02-09T23:25:45.315Z,39.30
2023-02-09T23:28:48.158Z,36.47
2023-02-09T23:31:50.093Z,40.00
2023-02-09T23:34:51.487Z,39.47
2023-02-09T23:37:52.864Z,34.83
2023-02-09T23:40:54.252Z,37.57
2023-02-09T23:43:56.384Z,35.97
2023-02-09T23:46:57.861Z,36.33
2023-02-09T23:49:59.273Z,40.47
2023-02-09T23:53:00.660Z,38.80
2023-02-09T23:56:04.923Z,42.83
2023-02-09T23:59:09.517Z,36.37
